Time;durP1;ratioP1;P1;durP2;ratioP2;P2;SDS_P1;SDS_P2;PMS_P1;PMS_P2;Temp;Humidity;BMP_temperature;BMP_pressure;BME280_temperature;BME280_humidity;BME280_pressure;Samples;Min_cycle;Max_cycle;Signal;HPM_P1;HPM_P2
2024/04/22 00:00:37;;;;;;;1.10;0.90;;;23.40;67.40;;;;;;5440487;26;20596;-39
2024/04/22 00:03:07;;;;;;;1.13;0.80;;;23.70;68.90;;;;;;5433098;26;20547;-41
2024/04/22 00:05:33;;;;;;;1.40;1.00;;;23.80;69.30;;;;;;5427512;26;22336;-34
2024/04/22 00:08:06;;;;;;;1.10;0.90;;;24.40;71.20;;;;;;5428616;26;20577;-36
2024/04/22 00:10:58;;;;;;;1.20;1.00;;;24.20;69.20;;;;;;5437668;26;20546;-35
2024/04/22 00:13:30;;;;;;;1.00;0.80;;;23.50;63.80;;;;;;5442019;26;20968;-33
2024/04/22 00:15:57;;;;;;;1.10;0.70;;;23.20;70.20;;;;;;5441593;26;21642;-38
2024/04/22 00:18:33;;;;;;;1.10;0.93;;;23.30;70.90;;;;;;5441219;26;21438;-34
2024/04/22 00:20:59;;;;;;;1.23;0.90;;;23.40;71.00;;;;;;5439558;26;20543;-39
2024/04/22 00:23:31;;;;;;;1.10;0.90;;;23.40;73.10;;;;;;5412737;26;20479;-31
2024/04/22 00:26:01;;;;;;;1.13;0.80;;;23.30;72.10;;;;;;5431267;26;20311;-36
2024/04/22 00:28:29;;;;;;;1.10;0.80;;;23.80;73.00;;;;;;5434314;26;20523;-30
2024/04/22 00:30:55;;;;;;;1.27;0.80;;;23.80;73.20;;;;;;5429193;26;20584;-36
2024/04/22 00:33:30;;;;;;;1.07;0.80;;;23.50;73.40;;;;;;5431311;26;21018;-35
2024/04/22 00:36:06;;;;;;;1.03;0.80;;;23.40;73.40;;;;;;5417383;26;20238;-35
2024/04/22 00:38:45;;;;;;;1.10;0.90;;;22.90;72.10;;;;;;5427926;26;20545;-35
2024/04/22 00:41:13;;;;;;;1.20;0.80;;;24.10;75.40;;;;;;5449295;26;20460;-40
2024/04/22 00:43:45;;;;;;;1.10;0.93;;;23.50;73.80;;;;;;5442008;26;20474;-40
2024/04/22 00:46:15;;;;;;;1.10;0.83;;;22.80;72.60;;;;;;5423691;26;20987;-37
2024/04/22 00:48:43;;;;;;;1.00;0.80;;;24.00;74.50;;;;;;5423313;26;20464;-33
2024/04/22 00:51:15;;;;;;;1.13;0.83;;;23.00;74.10;;;;;;5419439;26;20538;-35
2024/04/22 00:53:46;;;;;;;1.30;0.90;;;23.30;74.40;;;;;;5440371;26;20597;-34
2024/04/22 00:56:15;;;;;;;1.10;0.90;;;24.00;76.60;;;;;;5427819;26;20697;-31
2024/04/22 00:58:44;;;;;;;1.33;0.90;;;22.80;75.30;;;;;;5430747;26;20524;-32
2024/04/22 01:01:12;;;;;;;1.03;0.83;;;24.20;77.40;;;;;;5427286;26;20468;-33
2024/04/22 01:03:43;;;;;;;1.30;0.90;;;22.70;75.60;;;;;;5438234;26;21026;-40
2024/04/22 01:06:10;;;;;;;1.00;0.80;;;23.00;76.90;;;;;;5438601;26;20463;-35
2024/04/22 01:08:41;;;;;;;1.40;1.10;;;22.80;59.20;;;;;;5435389;26;22747;-33
2024/04/22 01:11:11;;;;;;;0.90;0.70;;;22.80;60.00;;;;;;5438481;26;20856;-37
2024/04/22 01:13:44;;;;;;;1.10;0.93;;;22.90;59.90;;;;;;5429361;26;20521;-34
2024/04/22 01:16:13;;;;;;;1.30;1.00;;;22.80;59.80;;;;;;5440768;26;20463;-38
2024/04/22 01:18:46;;;;;;;1.40;0.80;;;22.60;59.60;;;;;;5433040;26;20538;-39
2024/04/22 01:21:16;;;;;;;1.10;1.00;;;22.50;59.70;;;;;;5428948;26;20559;-39
2024/04/22 01:23:59;;;;;;;1.00;0.83;;;22.80;59.80;;;;;;5428074;26;21120;-33
2024/04/22 01:26:25;;;;;;;1.10;0.90;;;22.40;59.80;;;;;;5428000;26;20544;-36
2024/04/22 01:29:04;;;;;;;1.70;1.20;;;22.70;60.60;;;;;;5441933;26;20548;-34
2024/04/22 01:31:34;;;;;;;1.10;0.80;;;22.70;59.90;;;;;;5423043;26;21576;-30
2024/04/22 01:34:04;;;;;;;0.97;0.80;;;23.10;60.60;;;;;;5439091;26;20579;-37
2024/04/22 01:36:32;;;;;;;1.10;0.80;;;22.90;60.40;;;;;;5442513;26;21070;-35
2024/04/22 01:39:03;;;;;;;1.03;0.80;;;22.40;60.00;;;;;;5429911;26;20468;-33
2024/04/22 01:41:34;;;;;;;0.90;0.67;;;22.60;60.60;;;;;;5433328;26;20521;-35
2024/04/22 01:44:02;;;;;;;1.00;0.80;;;22.60;60.60;;;;;;5433896;26;21761;-39
2024/04/22 01:46:35;;;;;;;1.00;0.80;;;22.60;60.50;;;;;;5431707;26;20483;-35
2024/04/22 01:49:07;;;;;;;1.17;0.90;;;22.50;60.50;;;;;;5429824;26;20469;-36
2024/04/22 01:51:36;;;;;;;1.30;1.13;;;22.50;60.50;;;;;;5437019;26;21232;-37
2024/04/22 01:54:08;;;;;;;1.23;0.93;;;22.50;60.50;;;;;;5441744;26;20566;-35
2024/04/22 01:56:37;;;;;;;1.00;0.80;;;22.50;61.50;;;;;;5439216;26;20467;-36
2024/04/22 01:59:06;;;;;;;1.10;0.90;;;22.50;60.70;;;;;;5434501;26;20933;-32
2024/04/22 02:01:36;;;;;;;1.47;0.80;;;22.20;60.30;;;;;;5429230;26;20467;-33
2024/04/22 02:04:15;;;;;;;1.53;1.00;;;22.50;60.60;;;;;;5439364;26;21168;-29
2024/04/22 02:06:46;;;;;;;1.00;0.90;;;22.10;60.50;;;;;;5414644;26;20550;-35
2024/04/22 02:09:17;;;;;;;1.20;1.00;;;22.00;60.30;;;;;;5437615;26;20238;-35
2024/04/22 02:11:47;;;;;;;1.13;0.80;;;23.10;61.70;;;;;;5442146;26;20456;-31
2024/04/22 02:14:15;;;;;;;1.00;0.80;;;22.40;60.90;;;;;;5439966;26;20595;-35
2024/04/22 02:16:45;;;;;;;0.90;0.70;;;22.30;61.00;;;;;;5436568;26;20344;-36
2024/04/22 02:19:14;;;;;;;1.00;0.90;;;23.30;62.20;;;;;;5431976;26;20515;-35
2024/04/22 02:21:43;;;;;;;1.00;0.70;;;22.60;61.60;;;;;;5426756;26;20796;-39
2024/04/22 02:24:08;;;;;;;1.25;1.00;;;21.90;60.50;;;;;;5432105;26;20674;-36
2024/04/22 02:26:41;;;;;;;1.27;1.07;;;22.10;60.90;;;;;;5431871;26;20923;-40
2024/04/22 02:29:15;;;;;;;1.10;0.80;;;21.90;60.60;;;;;;5441383;26;20326;-33
2024/04/22 02:31:46;;;;;;;1.17;0.80;;;22.10;60.80;;;;;;5432997;26;20556;-34
2024/04/22 02:34:17;;;;;;;1.30;0.85;;;21.80;60.30;;;;;;5441618;26;20465;-32
2024/04/22 02:36:55;;;;;;;;;;;;;;;;;;;;;
2024/04/22 02:39:24;;;;;;;1.27;1.00;;;22.30;61.50;;;;;;5435417;26;20468;-37
2024/04/22 02:41:57;;;;;;;1.20;0.80;;;22.30;61.40;;;;;;5434830;26;21101;-34
2024/04/22 02:44:25;;;;;;;1.23;0.90;;;22.00;61.40;;;;;;5428264;26;20277;-36
2024/04/22 02:46:58;;;;;;;0.90;0.80;;;22.20;61.80;;;;;;5436434;26;20270;-38
2024/04/22 02:49:24;;;;;;;1.10;0.80;;;22.30;61.40;;;;;;5428877;26;20238;-32
2024/04/22 02:51:56;;;;;;;1.10;1.00;;;21.90;61.70;;;;;;5442545;26;20532;-32
2024/04/22 02:54:31;;;;;;;1.00;0.80;;;22.40;61.70;;;;;;5439065;26;20242;-38
2024/04/22 02:57:08;;;;;;;1.10;0.90;;;22.20;61.60;;;;;;5432619;26;20225;-40
2024/04/22 02:59:36;;;;;;;1.00;0.90;;;22.20;61.40;;;;;;5430553;26;20277;-37
2024/04/22 03:02:07;;;;;;;1.10;0.90;;;21.90;61.30;;;;;;5429578;26;20357;-38
2024/04/22 03:04:35;;;;;;;1.17;0.83;;;22.10;61.50;;;;;;5446106;26;20636;-39
2024/04/22 03:07:07;;;;;;;1.00;0.80;;;22.50;62.20;;;;;;5444843;26;20555;-35
2024/04/22 03:09:39;;;;;;;1.00;0.80;;;22.10;61.50;;;;;;5434594;26;21074;-36
2024/04/22 03:12:27;;;;;;;1.10;0.90;;;22.20;62.50;;;;;;5438811;26;20275;-33
2024/04/22 03:14:57;;;;;;;1.10;0.90;;;22.10;61.70;;;;;;5426212;26;20254;-36
2024/04/22 03:17:30;;;;;;;1.08;0.90;;;22.50;62.50;;;;;;5422794;26;20272;-37
2024/04/22 03:19:58;;;;;;;1.35;0.80;;;21.50;61.30;;;;;;5433758;26;20237;-37
2024/04/22 03:22:26;;;;;;;1.05;0.75;;;22.20;62.20;;;;;;5431473;26;20810;-40
2024/04/22 03:24:55;;;;;;;1.00;0.80;;;22.00;62.00;;;;;;5433923;26;21259;-32
2024/04/22 03:27:26;;;;;;;1.02;0.77;;;21.60;61.60;;;;;;5421021;26;20783;-37
2024/04/22 03:29:53;;;;;;;0.90;0.70;;;21.70;61.70;;;;;;5430149;26;20235;-39
2024/04/22 03:32:26;;;;;;;1.20;0.90;;;21.60;61.70;;;;;;5443373;26;20269;-41
2024/04/22 03:34:57;;;;;;;1.10;0.85;;;22.10;62.00;;;;;;5439881;26;23594;-36
2024/04/22 03:37:27;;;;;;;1.20;0.90;;;21.60;61.50;;;;;;5433586;26;20239;-36
2024/04/22 03:39:56;;;;;;;1.02;0.93;;;21.60;61.60;;;;;;5424892;26;20277;-40
2024/04/22 03:42:27;;;;;;;0.90;0.70;;;22.10;62.30;;;;;;5432592;26;20720;-41
2024/04/22 03:44:57;;;;;;;1.30;0.90;;;22.00;62.10;;;;;;5437161;26;20246;-37
2024/04/22 03:50:26;;;;;;;1.02;0.90;;;22.40;62.70;;;;;;5439017;26;22845;-39
2024/04/22 03:53:04;;;;;;;1.20;1.10;;;22.40;62.80;;;;;;5447424;26;20337;-40
2024/04/22 03:55:33;;;;;;;0.95;0.70;;;21.80;62.00;;;;;;5446055;26;20266;-35
2024/04/22 03:58:08;;;;;;;1.20;1.00;;;22.30;62.80;;;;;;5432120;26;21090;-37
2024/04/22 04:00:45;;;;;;;1.00;0.77;;;21.90;62.30;;;;;;5437039;26;20730;-33
2024/04/22 04:03:16;;;;;;;1.20;1.00;;;21.50;61.80;;;;;;5434509;26;20428;-39
2024/04/22 04:05:53;;;;;;;1.00;0.80;;;21.60;62.00;;;;;;5433272;26;20983;-33
2024/04/22 04:08:19;;;;;;;1.10;0.80;;;21.70;62.90;;;;;;5428458;26;21523;-37
2024/04/22 04:11:00;;;;;;;1.10;0.87;;;21.40;62.10;;;;;;5432618;26;20830;-36
2024/04/22 04:13:36;;;;;;;1.00;0.77;;;21.90;62.50;;;;;;5437812;26;20550;-35
2024/04/22 04:16:09;;;;;;;0.90;0.70;;;21.50;62.00;;;;;;5438951;26;20377;-36
2024/04/22 04:18:54;;;;;;;1.00;0.70;;;21.90;62.50;;;;;;5433065;26;20455;-33
2024/04/22 04:21:22;;;;;;;0.90;0.70;;;21.70;62.20;;;;;;5432714;26;20230;-39
2024/04/22 04:23:53;;;;;;;1.00;0.80;;;21.90;62.90;;;;;;5434920;26;20265;-36
2024/04/22 04:26:21;;;;;;;1.40;0.90;;;21.40;62.30;;;;;;5433331;26;21007;-36
2024/04/22 04:28:56;;;;;;;1.00;0.80;;;21.80;62.60;;;;;;5441782;26;20444;-32
2024/04/22 04:31:24;;;;;;;1.00;0.90;;;22.10;63.10;;;;;;5437012;26;20971;-33
2024/04/22 04:33:56;;;;;;;1.00;0.80;;;21.60;62.50;;;;;;5430620;26;20653;-36
2024/04/22 04:36:22;;;;;;;0.90;0.70;;;21.80;62.80;;;;;;5448622;26;20777;-38
2024/04/22 04:38:52;;;;;;;1.47;1.13;;;21.70;62.70;;;;;;5440361;26;20226;-36
2024/04/22 04:41:20;;;;;;;1.25;1.05;;;21.80;62.80;;;;;;5422893;26;20294;-31
2024/04/22 04:43:55;;;;;;;0.90;0.80;;;21.80;62.80;;;;;;5425481;26;20281;-37
2024/04/22 04:46:21;;;;;;;1.00;0.80;;;22.30;63.60;;;;;;5433082;26;20284;-37
2024/04/22 04:48:49;;;;;;;1.23;1.00;;;21.60;62.70;;;;;;5424099;26;21118;-34
2024/04/22 04:51:18;;;;;;;1.00;0.70;;;21.80;62.90;;;;;;5445996;26;20591;-38
2024/04/22 04:53:59;;;;;;;1.00;0.80;;;21.60;62.70;;;;;;5422689;26;20639;-39
2024/04/22 04:56:27;;;;;;;0.98;0.70;;;21.70;63.10;;;;;;5431215;26;20456;-42
2024/04/22 04:58:59;;;;;;;1.00;0.90;;;21.80;62.80;;;;;;5440043;26;20239;-39
2024/04/22 05:01:40;;;;;;;1.33;0.90;;;21.70;63.20;;;;;;5426361;26;20226;-35
2024/04/22 05:04:19;;;;;;;1.20;0.80;;;21.70;62.90;;;;;;5440037;26;20238;-38
2024/04/22 05:06:49;;;;;;;1.08;0.82;;;21.70;63.00;;;;;;5421952;26;20269;-41
2024/04/22 05:09:25;;;;;;;0.90;0.77;;;21.70;62.90;;;;;;5421221;26;20986;-35
2024/04/22 05:12:06;;;;;;;0.93;0.77;;;22.00;63.70;;;;;;5436288;26;20563;-37
2024/04/22 05:14:49;;;;;;;1.00;0.70;;;22.00;63.60;;;;;;5433410;26;20256;-36
2024/04/22 05:17:15;;;;;;;1.10;1.00;;;21.70;63.00;;;;;;5429433;26;21041;-32
2024/04/22 05:19:45;;;;;;;1.13;0.87;;;21.70;63.30;;;;;;5433988;26;20230;-32
2024/04/22 05:22:12;;;;;;;1.25;1.15;;;21.70;63.20;;;;;;5433958;26;20330;-35
2024/04/22 05:24:55;;;;;;;0.90;0.70;;;21.70;63.50;;;;;;5430091;26;20227;-35
2024/04/22 05:27:26;;;;;;;0.98;0.85;;;21.70;63.00;;;;;;5424724;26;20247;-39
2024/04/22 05:30:04;;;;;;;0.90;0.70;;;22.10;63.90;;;;;;5439398;26;20801;-35
2024/04/22 05:32:33;;;;;;;1.20;1.10;;;21.30;63.10;;;;;;5429576;26;20964;-37
2024/04/22 05:37:49;;;;;;;1.20;0.80;;;21.70;63.30;;;;;;5423103;26;20667;-33
2024/04/22 05:40:20;;;;;;;1.00;0.70;;;21.20;62.80;;;;;;5429634;26;20611;-35
2024/04/22 05:42:50;;;;;;;1.10;0.75;;;21.60;63.30;;;;;;5435131;26;20242;-33
2024/04/22 05:45:21;;;;;;;0.93;0.73;;;21.60;63.30;;;;;;5432926;26;20234;-32
2024/04/22 05:47:53;;;;;;;1.30;0.85;;;21.60;63.30;;;;;;5429285;26;20234;-39
2024/04/22 05:50:22;;;;;;;1.00;0.80;;;21.70;63.40;;;;;;5428734;26;20249;-36
2024/04/22 05:52:59;;;;;;;1.15;0.95;;;21.60;63.20;;;;;;5420179;26;21883;-35
2024/04/22 05:55:27;;;;;;;1.10;0.80;;;21.60;63.20;;;;;;5436584;26;20238;-32
2024/04/22 05:57:59;;;;;;;1.20;0.90;;;21.20;62.80;;;;;;5431904;26;20408;-41
2024/04/22 06:00:27;;;;;;;1.13;0.90;;;21.60;63.20;;;;;;5429481;26;20234;-36
2024/04/22 06:02:56;;;;;;;0.90;0.70;;;21.80;63.40;;;;;;5433767;26;20962;-38
2024/04/22 06:05:22;;;;;;;1.20;1.00;;;21.40;62.90;;;;;;5413518;26;20334;-34
2024/04/22 06:07:55;;;;;;;1.10;0.90;;;21.70;63.20;;;;;;5430528;26;20230;-33
2024/04/22 06:10:22;;;;;;;1.20;0.80;;;21.40;62.60;;;;;;5436457;26;20688;-38
2024/04/22 06:12:51;;;;;;;1.63;0.73;;;21.80;63.20;;;;;;5433616;26;20226;-35
2024/04/22 06:15:24;;;;;;;1.00;0.80;;;21.60;62.60;;;;;;5444147;26;20333;-37
2024/04/22 06:18:00;;;;;;;1.00;0.80;;;21.60;62.50;;;;;;5441579;26;20242;-36
2024/04/22 06:20:28;;;;;;;0.90;0.70;;;21.60;62.80;;;;;;5428941;26;20245;-39
2024/04/22 06:23:03;;;;;;;1.10;0.95;;;21.90;64.40;;;;;;5431613;26;20228;-34
2024/04/22 06:25:29;;;;;;;0.80;0.60;;;21.80;64.60;;;;;;5436692;26;20241;-38
2024/04/22 06:27:57;;;;;;;1.00;0.70;;;22.10;64.60;;;;;;5427691;26;21714;-33
2024/04/22 06:30:25;;;;;;;0.90;0.77;;;22.40;65.00;;;;;;5433527;26;20252;-32
2024/04/22 06:32:58;;;;;;;1.30;1.20;;;22.40;64.90;;;;;;5431620;26;20511;-40
2024/04/22 06:35:29;;;;;;;1.00;0.80;;;21.80;62.20;;;;;;5445057;26;20623;-35
2024/04/22 06:38:07;;;;;;;1.13;0.75;;;23.40;65.10;;;;;;5419227;26;21304;-40
2024/04/22 06:40:40;;;;;;;1.00;0.90;;;22.20;62.50;;;;;;5437486;26;20258;-35
2024/04/22 06:43:12;;;;;;;0.90;0.77;;;22.00;63.60;;;;;;5434956;26;20487;-33
2024/04/22 06:45:44;;;;;;;1.00;0.70;;;22.10;64.20;;;;;;5425563;26;20581;-29
2024/04/22 06:48:17;;;;;;;7.33;1.17;;;22.30;63.40;;;;;;5419434;26;22760;-28
2024/04/22 06:50:50;;;;;;;1.90;0.90;;;22.30;63.10;;;;;;5421020;26;20879;-32
2024/04/22 06:53:23;;;;;;;5.33;1.00;;;22.50;63.50;;;;;;5428050;26;20792;-37
2024/04/22 06:55:58;;;;;;;4.20;1.10;;;22.90;62.80;;;;;;5441362;26;20528;-36
2024/04/22 06:58:24;;;;;;;3.10;0.90;;;22.70;62.90;;;;;;5435805;26;20458;-34
2024/04/22 07:01:01;;;;;;;1.00;0.77;;;22.70;63.10;;;;;;5425705;26;20938;-34
2024/04/22 07:03:30;;;;;;;2.80;1.57;;;23.10;62.90;;;;;;5438990;26;20816;-39
2024/04/22 07:06:02;;;;;;;1.10;0.80;;;23.30;63.30;;;;;;5434991;26;20468;-33
2024/04/22 07:08:28;;;;;;;1.00;0.70;;;23.10;62.40;;;;;;5428524;26;20883;-35
2024/04/22 07:10:58;;;;;;;2.27;0.80;;;23.20;62.80;;;;;;5418801;26;20516;-31
2024/04/22 07:13:26;;;;;;;1.27;1.00;;;24.40;63.90;;;;;;5434819;26;20335;-33
2024/04/22 07:16:04;;;;;;;1.37;0.70;;;23.50;62.70;;;;;;5426921;26;20463;-41
2024/04/22 07:18:40;;;;;;;1.73;1.03;;;23.30;61.20;;;;;;5430266;26;21340;-28
2024/04/22 07:21:10;;;;;;;2.70;0.90;;;23.50;62.00;;;;;;5430120;26;20890;-38
2024/04/22 07:23:40;;;;;;;1.13;0.80;;;23.90;62.10;;;;;;5423788;26;20928;-34
2024/04/22 07:26:17;;;;;;;2.77;1.00;;;23.90;62.30;;;;;;5429524;26;20920;-32
2024/04/22 07:28:46;;;;;;;1.00;0.80;;;23.80;62.10;;;;;;5426095;26;21160;-38
2024/04/22 07:31:15;;;;;;;1.63;0.90;;;23.90;61.10;;;;;;5434940;26;21353;-37
2024/04/22 07:33:47;;;;;;;3.63;1.00;;;23.90;61.20;;;;;;5420526;26;20479;-34
2024/04/22 07:36:28;;;;;;;1.10;0.80;;;24.00;60.40;;;;;;5433340;26;21138;-39
2024/04/22 07:39:09;;;;;;;1.30;0.90;;;23.70;59.60;;;;;;5437368;26;20510;-34
2024/04/22 07:41:48;;;;;;;5.37;1.13;;;24.10;59.40;;;;;;5429626;26;20521;-33
2024/04/22 07:44:15;;;;;;;4.70;0.97;;;24.00;59.20;;;;;;5445839;26;21150;-42
2024/04/22 07:46:45;;;;;;;1.63;1.10;;;24.40;58.90;;;;;;5430590;26;20507;-34
2024/04/22 07:49:17;;;;;;;1.77;0.80;;;24.40;58.80;;;;;;5415980;26;21748;-32
2024/04/22 07:52:00;;;;;;;1.40;0.90;;;25.00;59.60;;;;;;5436725;26;20608;-40
2024/04/22 07:54:30;;;;;;;1.13;0.70;;;25.10;58.80;;;;;;5443681;26;20915;-38
2024/04/22 07:56:59;;;;;;;1.10;0.90;;;24.70;58.30;;;;;;5443109;26;20520;-40
2024/04/22 07:59:28;;;;;;;2.50;0.83;;;24.80;58.10;;;;;;5430634;26;21222;-36
2024/04/22 08:02:01;;;;;;;1.23;0.97;;;24.80;57.70;;;;;;5433553;26;20552;-34
2024/04/22 08:04:33;;;;;;;1.47;1.00;;;24.90;58.00;;;;;;5436670;26;20468;-39
2024/04/22 08:07:14;;;;;;;1.50;0.83;;;25.00;57.40;;;;;;5423076;26;21075;-32
2024/04/22 08:09:41;;;;;;;1.67;0.77;;;25.00;57.80;;;;;;5439000;26;20520;-33
2024/04/22 08:12:19;;;;;;;1.00;0.80;;;25.10;57.80;;;;;;5436175;26;20556;-38
2024/04/22 08:14:47;;;;;;;1.10;0.80;;;24.70;57.30;;;;;;5442383;26;21271;-32
2024/04/22 08:17:16;;;;;;;1.00;0.70;;;25.10;57.30;;;;;;5441241;26;21095;-37
2024/04/22 08:19:47;;;;;;;2.13;0.90;;;24.50;57.40;;;;;;5433833;26;20474;-31
2024/04/22 08:22:19;;;;;;;1.10;0.87;;;25.40;57.90;;;;;;5418608;26;20516;-39
2024/04/22 08:24:50;;;;;;;1.23;0.87;;;25.10;57.50;;;;;;5428006;26;20521;-40
2024/04/22 08:27:22;;;;;;;0.90;0.70;;;25.10;57.50;;;;;;5436889;26;21009;-34
2024/04/22 08:29:55;;;;;;;1.37;1.10;;;25.30;57.30;;;;;;5439427;26;20525;-31
2024/04/22 08:32:25;;;;;;;1.80;0.93;;;25.20;58.00;;;;;;5440233;26;20553;-32
2024/04/22 08:35:10;;;;;;;2.30;1.10;;;25.20;57.20;;;;;;5433490;26;20481;-41
2024/04/22 08:37:53;;;;;;;2.53;1.20;;;25.40;56.40;;;;;;5436734;26;20470;-34
2024/04/22 08:40:30;;;;;;;1.50;0.97;;;25.20;58.60;;;;;;5428582;26;20867;-36
2024/04/22 08:42:56;;;;;;;2.80;1.00;;;25.10;56.30;;;;;;5435360;26;20518;-34
2024/04/22 08:45:25;;;;;;;1.00;0.90;;;25.50;56.40;;;;;;5433754;26;20479;-36
2024/04/22 08:48:04;;;;;;;1.07;0.87;;;25.90;55.90;;;;;;5416183;26;21314;-39
2024/04/22 08:50:41;;;;;;;1.10;0.80;;;25.30;55.80;;;;;;5426191;26;20571;-36
2024/04/22 08:53:09;;;;;;;1.30;1.10;;;25.50;55.90;;;;;;5419929;26;20511;-39
2024/04/22 08:55:43;;;;;;;1.03;0.90;;;25.50;55.50;;;;;;5427867;26;20455;-38
2024/04/22 08:58:11;;;;;;;1.67;0.97;;;26.40;55.80;;;;;;5435959;26;20930;-39
2024/04/22 09:00:40;;;;;;;1.57;1.03;;;25.80;55.90;;;;;;5436632;26;20465;-34
2024/04/22 09:03:11;;;;;;;1.10;0.80;;;25.70;55.10;;;;;;5434116;26;20579;-32
2024/04/22 09:05:48;;;;;;;1.20;0.80;;;25.80;55.80;;;;;;5432917;26;20463;-34
2024/04/22 09:08:15;;;;;;;1.30;0.90;;;25.80;55.90;;;;;;5437326;26;20471;-36
2024/04/22 09:10:57;;;;;;;1.10;0.90;;;25.90;56.30;;;;;;5437398;26;20462;-32
2024/04/22 09:13:22;;;;;;;1.20;0.90;;;26.50;56.30;;;;;;5437615;26;20466;-37
2024/04/22 09:15:57;;;;;;;1.30;1.20;;;25.80;56.10;;;;;;5431310;26;20583;-39
2024/04/22 09:18:26;;;;;;;1.20;0.80;;;25.50;55.20;;;;;;5432015;26;20236;-32
2024/04/22 09:21:09;;;;;;;1.80;0.90;;;25.90;55.90;;;;;;5432724;26;20527;-36
2024/04/22 09:23:40;;;;;;;2.03;0.87;;;25.80;56.10;;;;;;5423540;26;20522;-35
2024/04/22 09:26:09;;;;;;;6.37;1.20;;;26.50;56.70;;;;;;5421551;26;20471;-35
2024/04/22 09:28:36;;;;;;;1.13;0.90;;;25.80;55.90;;;;;;5432082;26;21461;-35
2024/04/22 09:31:05;;;;;;;1.57;0.90;;;26.00;56.30;;;;;;5429879;26;20464;-37
2024/04/22 09:33:35;;;;;;;1.20;0.90;;;25.80;55.50;;;;;;5427163;26;21316;-33
2024/04/22 09:36:14;;;;;;;2.63;1.10;;;25.80;56.60;;;;;;5425245;26;20471;-34
2024/04/22 09:38:44;;;;;;;1.97;0.80;;;25.70;56.10;;;;;;5435317;26;20475;-37
2024/04/22 09:41:14;;;;;;;1.60;0.90;;;25.90;56.30;;;;;;5427148;26;20689;-32
2024/04/22 09:43:44;;;;;;;1.37;1.00;;;25.40;56.10;;;;;;5436879;26;20517;-37
2024/04/22 09:46:15;;;;;;;1.00;0.70;;;25.90;56.90;;;;;;5432752;26;20599;-34
2024/04/22 09:48:47;;;;;;;2.07;0.90;;;25.70;56.20;;;;;;5438467;26;20466;-36
2024/04/22 09:51:28;;;;;;;1.10;0.80;;;25.70;56.50;;;;;;5433620;26;20810;-34
2024/04/22 09:53:57;;;;;;;2.27;0.80;;;25.40;56.00;;;;;;5425425;26;20484;-31
2024/04/22 09:56:29;;;;;;;1.10;0.80;;;25.70;56.80;;;;;;5440587;26;20459;-37
2024/04/22 09:59:00;;;;;;;1.20;0.80;;;25.60;56.50;;;;;;5433070;26;20461;-37
2024/04/22 10:01:28;;;;;;;1.20;0.90;;;25.70;56.30;;;;;;5417618;26;21208;-38
2024/04/22 10:03:58;;;;;;;1.00;0.80;;;25.80;56.90;;;;;;5439779;26;20590;-35
2024/04/22 10:06:32;;;;;;;1.40;1.00;;;25.50;56.00;;;;;;5432367;26;20864;-38
2024/04/22 10:09:03;;;;;;;1.93;0.90;;;26.50;57.10;;;;;;5424141;26;20587;-38
2024/04/22 10:11:33;;;;;;;1.03;0.80;;;26.70;57.10;;;;;;5425953;26;20552;-35
2024/04/22 10:14:13;;;;;;;1.30;0.83;;;25.90;56.60;;;;;;5439023;26;20476;-36
2024/04/22 10:16:48;;;;;;;1.50;1.33;;;25.60;56.50;;;;;;5422371;26;20865;-41
2024/04/22 10:19:16;;;;;;;1.00;0.80;;;25.90;56.60;;;;;;5427429;26;20619;-34
2024/04/22 10:21:50;;;;;;;2.80;0.90;;;25.40;56.00;;;;;;5431410;26;21202;-38
2024/04/22 10:24:26;;;;;;;3.47;0.80;;;25.80;56.60;;;;;;5434788;26;20830;-37
2024/04/22 10:26:57;;;;;;;3.83;0.90;;;25.60;56.20;;;;;;5430672;26;20529;-33
2024/04/22 10:29:26;;;;;;;1.73;0.83;;;25.80;56.60;;;;;;5433045;26;21023;-36
2024/04/22 10:31:57;;;;;;;1.10;0.80;;;26.00;57.20;;;;;;5434950;26;20452;-41
2024/04/22 10:34:30;;;;;;;1.20;0.80;;;26.00;56.30;;;;;;5430938;26;20553;-36
2024/04/22 10:37:07;;;;;;;1.83;0.90;;;27.10;57.50;;;;;;5422366;26;20540;-30
2024/04/22 10:39:37;;;;;;;1.50;1.00;;;26.10;56.20;;;;;;5435842;26;20527;-37
2024/04/22 10:42:10;;;;;;;1.33;1.00;;;26.10;56.10;;;;;;5430297;26;20468;-34
2024/04/22 10:44:49;;;;;;;2.00;0.93;;;26.10;56.20;;;;;;5422467;26;20474;-32
2024/04/22 10:47:18;;;;;;;3.10;1.33;;;26.50;55.70;;;;;;5426209;26;20577;-30
2024/04/22 10:50:00;;;;;;;1.33;0.80;;;25.90;56.30;;;;;;5433052;26;20589;-34
2024/04/22 10:52:33;;;;;;;1.30;0.90;;;25.90;55.40;;;;;;5433406;26;20924;-36
2024/04/22 10:55:01;;;;;;;1.20;0.80;;;26.10;56.60;;;;;;5434904;26;22967;-38
2024/04/22 10:57:38;;;;;;;1.13;0.83;;;26.00;56.10;;;;;;5431617;26;21215;-31
2024/04/22 11:00:10;;;;;;;7.33;0.90;;;26.20;54.60;;;;;;5431210;26;20458;-35
2024/04/22 11:02:38;;;;;;;1.30;0.90;;;26.20;55.60;;;;;;5438771;26;20467;-33
2024/04/22 11:05:08;;;;;;;1.30;0.80;;;26.20;56.20;;;;;;5437739;26;20585;-37
2024/04/22 11:07:38;;;;;;;1.30;0.90;;;26.20;55.70;;;;;;5430519;26;20480;-37
2024/04/22 11:10:11;;;;;;;1.20;0.90;;;26.60;55.80;;;;;;5431012;26;20561;-38
2024/04/22 11:12:44;;;;;;;1.50;0.70;;;25.40;55.10;;;;;;5423178;26;21061;-38
2024/04/22 11:15:18;;;;;;;1.50;1.00;;;26.20;55.70;;;;;;5435743;26;20478;-37
2024/04/22 11:17:43;;;;;;;1.47;1.00;;;26.20;55.30;;;;;;5425079;26;20581;-31
2024/04/22 11:20:14;;;;;;;1.00;0.70;;;26.20;56.10;;;;;;5442244;26;20940;-35
2024/04/22 11:22:43;;;;;;;3.43;1.20;;;26.30;55.10;;;;;;5418574;26;20704;-38
2024/04/22 11:25:15;;;;;;;1.23;0.80;;;26.60;56.30;;;;;;5439365;26;20460;-34
2024/04/22 11:27:46;;;;;;;1.00;0.80;;;26.20;55.50;;;;;;5421700;26;22759;-37
2024/04/22 11:30:19;;;;;;;1.63;0.80;;;26.10;56.30;;;;;;5435808;26;20526;-39
2024/04/22 11:32:48;;;;;;;2.10;0.90;;;26.30;54.70;;;;;;5435384;26;20967;-33
2024/04/22 11:35:16;;;;;;;1.00;0.70;;;26.20;55.00;;;;;;5435497;26;20513;-34
2024/04/22 11:37:54;;;;;;;1.40;0.80;;;26.40;55.50;;;;;;5431458;26;20463;-37
2024/04/22 11:40:24;;;;;;;1.10;0.80;;;26.20;55.30;;;;;;5428174;26;20451;-37
2024/04/22 11:42:55;;;;;;;1.17;0.77;;;26.20;55.70;;;;;;5430357;26;20774;-33
2024/04/22 11:45:24;;;;;;;4.90;1.37;;;26.00;55.50;;;;;;5438657;26;20468;-34
2024/04/22 11:47:49;;;;;;;1.10;0.70;;;26.20;55.50;;;;;;5434028;26;20581;-39
2024/04/22 11:50:18;;;;;;;1.27;1.03;;;26.20;55.70;;;;;;5438533;26;20459;-41
2024/04/22 11:52:58;;;;;;;1.00;0.80;;;26.20;55.60;;;;;;5429273;26;20235;-34
2024/04/22 11:55:26;;;;;;;1.30;1.00;;;26.00;56.20;;;;;;5436603;26;21910;-31
2024/04/22 11:57:56;;;;;;;1.10;0.90;;;26.60;55.60;;;;;;5430590;26;20616;-29
2024/04/22 12:00:28;;;;;;;1.83;1.20;;;26.20;54.00;;;;;;5432640;26;20527;-36
2024/04/22 12:02:56;;;;;;;0.90;0.60;;;26.80;55.70;;;;;;5421199;26;20527;-35
2024/04/22 12:05:26;;;;;;;1.20;0.93;;;26.40;55.30;;;;;;5446356;26;20486;-37
2024/04/22 12:07:56;;;;;;;1.30;0.90;;;26.20;55.90;;;;;;5435997;26;20958;-35
2024/04/22 12:10:27;;;;;;;1.47;0.80;;;26.90;56.30;;;;;;5443046;26;20526;-40
2024/04/22 12:12:55;;;;;;;1.10;0.93;;;26.70;55.30;;;;;;5431807;26;20462;-35
2024/04/22 12:15:24;;;;;;;1.00;0.70;;;26.20;54.00;;;;;;5432377;26;20585;-37
2024/04/22 12:17:56;;;;;;;1.60;0.80;;;26.30;56.00;;;;;;5431709;26;20595;-31
2024/04/22 12:20:38;;;;;;;1.10;0.70;;;26.70;56.20;;;;;;5411564;26;20521;-36
2024/04/22 12:23:08;;;;;;;1.00;0.70;;;26.30;55.40;;;;;;5439207;26;21021;-40
2024/04/22 12:25:42;;;;;;;1.20;0.90;;;26.20;55.60;;;;;;5432347;26;20758;-39
2024/04/22 12:28:12;;;;;;;1.27;0.80;;;27.00;54.90;;;;;;5443081;26;20553;-36
2024/04/22 12:30:40;;;;;;;1.37;0.87;;;26.20;55.40;;;;;;5417696;26;20537;-34
2024/04/22 12:33:09;;;;;;;3.30;1.03;;;26.00;55.70;;;;;;5434164;26;21492;-38
2024/04/22 12:35:46;;;;;;;1.13;0.80;;;26.30;55.60;;;;;;5432762;26;20475;-33
2024/04/22 12:38:20;;;;;;;1.10;1.00;;;25.90;55.10;;;;;;5423528;26;20466;-32
2024/04/22 12:40:49;;;;;;;2.70;1.00;;;26.00;55.50;;;;;;5426889;26;20532;-34
2024/04/22 12:43:17;;;;;;;2.43;1.00;;;26.60;55.50;;;;;;5417606;26;20468;-33
2024/04/22 12:45:46;;;;;;;1.03;0.70;;;26.20;55.80;;;;;;5428356;26;21390;-29
2024/04/22 12:51:03;;;;;;;1.67;0.83;;;26.10;53.80;;;;;;5432899;26;20562;-32
2024/04/22 12:53:34;;;;;;;1.00;0.80;;;26.20;55.10;;;;;;5426982;26;20464;-29
2024/04/22 12:56:14;;;;;;;0.90;0.60;;;26.30;55.20;;;;;;5437731;26;20938;-30
2024/04/22 12:58:50;;;;;;;1.63;1.13;;;26.80;55.10;;;;;;5433444;26;20597;-33
2024/04/22 13:01:22;;;;;;;3.27;0.70;;;26.00;54.80;;;;;;5415991;26;20460;-33
2024/04/22 13:03:52;;;;;;;4.40;0.90;;;25.90;57.30;;;;;;5434257;26;20476;-32
2024/04/22 13:06:29;;;;;;;1.10;0.73;;;26.40;57.50;;;;;;5433166;26;20463;-32
2024/04/22 13:09:04;;;;;;;1.60;0.87;;;25.90;57.20;;;;;;5425593;26;23104;-34
2024/04/22 13:11:37;;;;;;;1.20;0.80;;;25.90;58.40;;;;;;5429489;26;20571;-33
2024/04/22 13:14:06;;;;;;;1.93;1.30;;;26.70;57.80;;;;;;5432255;26;20463;-34
2024/04/22 13:16:34;;;;;;;1.40;1.00;;;26.10;57.30;;;;;;5427445;26;20604;-34
2024/04/22 13:19:02;;;;;;;1.10;0.67;;;26.00;57.20;;;;;;5433992;26;20470;-32